Time;durP1;ratioP1;P1;durP2;ratioP2;P2;SDS_P1;SDS_P2;PMS_P1;PMS_P2;Temp;Humidity;BMP_temperature;BMP_pressure;BME280_temperature;BME280_humidity;BME280_pressure;Samples;Min_cycle;Max_cycle;Signal;HPM_P1;HPM_P2
2021/08/11 00:02:00;;;;;;;7.88;4.43;;;;;;;11.20;81.25;91192.81;5029832;28;20038;-87
2021/08/11 00:04:41;;;;;;;7.50;4.45;;;;;;;11.13;82.17;91194.41;5000617;28;20486;-87
2021/08/11 00:07:16;;;;;;;8.18;3.97;;;;;;;11.03;82.79;91190.38;5003470;28;20026;-87
2021/08/11 00:09:55;;;;;;;6.80;4.13;;;;;;;11.13;82.57;91194.41;5018138;28;20394;-86
2021/08/11 00:12:32;;;;;;;6.13;4.03;;;;;;;11.07;82.37;91186.03;5017510;28;20033;-87
2021/08/11 00:15:07;;;;;;;9.45;3.97;;;;;;;11.18;83.91;91192.34;5003013;28;20034;-87
2021/08/11 00:17:46;;;;;;;6.95;4.07;;;;;;;11.22;84.44;91193.22;5018613;28;20125;-87
2021/08/11 00:20:26;;;;;;;5.45;3.83;;;;;;;11.18;85.24;91196.81;5019987;28;20022;-87
2021/08/11 00:23:02;;;;;;;8.35;4.40;;;;;;;11.32;85.52;91199.13;5002176;28;20022;-87
2021/08/11 00:25:40;;;;;;;5.57;3.83;;;;;;;11.36;85.42;91197.38;5018242;28;20140;-87
2021/08/11 00:28:18;;;;;;;6.47;3.88;;;;;;;11.31;86.30;91200.19;5032431;28;20022;-87
2021/08/11 00:30:51;;;;;;;11.30;4.50;;;;;;;11.25;86.67;91197.03;5028744;28;20030;-88
2021/08/11 00:33:27;;;;;;;7.13;4.32;;;;;;;11.30;86.88;91193.44;5030207;28;20029;-87
2021/08/11 00:36:11;;;;;;;8.48;4.43;;;;;;;11.36;86.89;91205.97;5029925;28;20030;-87
2021/08/11 00:38:40;;;;;;;;;;;;;;;11.49;86.36;91201.53;5013413;28;20026;-87
2021/08/11 00:41:20;;;;;;;7.80;3.75;;;;;;;11.46;86.11;91197.72;4996522;28;19952;-87
2021/08/11 00:44:00;;;;;;;8.43;3.97;;;;;;;11.36;86.53;91190.31;5012570;28;20030;-87
2021/08/11 00:46:36;;;;;;;5.90;3.92;;;;;;;11.52;86.75;91207.91;5012359;28;20109;-87
2021/08/11 00:49:14;;;;;;;6.10;4.00;;;;;;;11.41;87.00;91202.38;5028690;28;20072;-87
2021/08/11 00:51:50;;;;;;;8.35;4.40;;;;;;;11.43;87.29;91195.75;5013549;28;20166;-87
2021/08/11 00:54:28;;;;;;;6.93;4.45;;;;;;;11.38;88.03;91206.41;4997209;28;20392;-87
2021/08/11 00:57:04;;;;;;;5.50;4.20;;;;;;;11.42;88.04;91196.84;4997144;28;20546;-87
2021/08/11 00:59:47;;;;;;;6.95;4.32;;;;;;;11.51;87.88;91201.19;5012004;28;20054;-87
2021/08/11 01:02:21;;;;;;;9.30;4.22;;;;;;;11.42;87.75;91185.66;5012821;28;20021;-87
2021/08/11 01:04:57;;;;;;;6.82;4.22;;;;;;;11.48;87.09;91190.31;4996960;28;20524;-87
2021/08/11 01:07:35;;;;;;;7.15;4.10;;;;;;;11.41;87.41;91194.53;5012719;28;20029;-87
2021/08/11 01:10:13;;;;;;;6.88;4.05;;;;;;;11.48;87.54;91190.31;4996624;28;20026;-87
2021/08/11 01:12:53;;;;;;;6.10;4.25;;;;;;;11.40;87.30;91193.78;5028369;28;20026;-87
2021/08/11 01:15:28;;;;;;;5.35;3.75;;;;;;;11.34;87.08;91195.09;4996305;28;20371;-88
2021/08/11 01:18:06;;;;;;;7.03;4.10;;;;;;;11.34;87.37;91205.53;4996236;28;20037;-88
2021/08/11 01:20:39;;;;;;;5.82;4.30;;;;;;;11.33;87.95;91198.03;5028791;28;20558;-88
2021/08/11 01:23:18;;;;;;;6.57;3.67;;;;;;;11.38;87.66;91201.19;5014418;28;20026;-88
2021/08/11 01:25:59;;;;;;;7.28;4.07;;;;;;;11.35;87.90;91203.69;4999375;28;20014;-87
2021/08/11 01:28:48;;;;;;;7.80;4.30;;;;;;;11.41;87.10;91195.31;4996800;28;20026;-87
2021/08/11 01:31:46;;;;;;;8.45;4.57;;;;;;;11.31;87.65;91192.34;5011316;28;20295;-88
2021/08/11 01:34:33;;;;;;;6.97;4.10;;;;;;;11.32;87.43;91196.50;5016260;28;20125;-88
2021/08/11 01:37:09;;;;;;;6.65;4.03;;;;;;;11.37;87.43;91199.66;5027807;28;20560;-87
2021/08/11 01:39:50;;;;;;;6.20;3.97;;;;;;;11.35;87.12;91194.00;5028430;28;20034;-87
2021/08/11 01:42:44;;;;;;;7.10;3.83;;;;;;;11.38;87.07;91198.59;5010868;28;20069;-87
2021/08/11 01:45:24;;;;;;;6.82;3.85;;;;;;;11.33;87.16;91190.94;5012192;28;20049;-87
2021/08/11 01:48:12;;;;;;;7.55;3.67;;;;;;;11.23;86.88;91186.91;5027519;28;20026;-87
2021/08/11 01:50:50;;;;;;;6.82;3.63;;;;;;;11.16;86.10;91188.53;5013195;28;20034;-87
2021/08/11 01:53:27;;;;;;;7.55;3.88;;;;;;;11.19;86.05;91182.69;4996042;28;20030;-88
2021/08/11 01:56:07;;;;;;;5.13;3.67;;;;;;;11.01;85.85;91182.88;4995075;28;20030;-88
2021/08/11 01:58:41;;;;;;;6.32;4.03;;;;;;;10.91;86.27;91180.66;4995914;28;20025;-88
2021/08/11 02:01:18;;;;;;;5.95;4.10;;;;;;;10.88;86.65;91189.13;4979733;28;20026;-88
2021/08/11 02:03:55;;;;;;;6.60;3.83;;;;;;;10.95;87.24;91176.34;4996229;28;20022;-87
2021/08/11 02:06:36;;;;;;;5.97;3.92;;;;;;;10.92;87.80;91176.25;4980743;28;20030;-87
2021/08/11 02:09:13;;;;;;;8.70;4.03;;;;;;;10.91;87.05;91174.69;5011328;28;20028;-87
2021/08/11 02:11:53;;;;;;;6.32;3.90;;;;;;;10.82;86.14;91172.19;4979712;28;20026;-88
2021/08/11 02:14:31;;;;;;;8.45;3.58;;;;;;;10.86;85.68;91182.75;5011243;28;20053;-87
2021/08/11 02:17:09;;;;;;;6.80;3.67;;;;;;;10.77;85.46;91169.78;5011538;28;20111;-88
2021/08/11 02:19:51;;;;;;;5.32;3.60;;;;;;;10.69;86.59;91171.38;4979596;28;20040;-87
2021/08/11 02:22:32;;;;;;;9.63;4.32;;;;;;;10.66;87.42;91177.25;5011157;28;20022;-87
2021/08/11 02:25:21;;;;;;;10.02;3.85;;;;;;;10.70;88.31;91166.94;5012579;28;20034;-87
2021/08/11 02:28:28;;;;;;;4.60;3.47;;;;;;;10.73;87.62;91158.47;4999343;28;20026;-87
2021/08/11 02:31:35;;;;;;;5.40;3.63;;;;;;;10.87;87.90;91171.97;5002087;28;20124;-87
2021/08/11 02:34:09;;;;;;;5.93;3.65;;;;;;;10.83;87.87;91160.69;5029556;28;20037;-87
2021/08/11 02:36:59;;;;;;;7.03;3.78;;;;;;;10.67;86.95;91159.75;5015384;28;20632;-88
2021/08/11 02:39:58;;;;;;;5.07;3.22;;;;;;;10.67;86.29;91157.94;5039956;28;20037;-89
2021/08/11 02:42:42;;;;;;;4.85;3.42;;;;;;;10.67;86.43;91151.94;5050465;28;20030;-87
2021/08/11 02:45:23;;;;;;;5.82;3.50;;;;;;;10.65;86.54;91161.94;5015480;28;20088;-87
2021/08/11 02:48:07;;;;;;;5.65;3.30;;;;;;;10.64;86.39;91165.63;5014658;28;20053;-88
2021/08/11 02:50:45;;;;;;;6.65;3.70;;;;;;;10.47;86.32;91164.69;5030136;28;20029;-87
2021/08/11 02:53:29;;;;;;;6.35;3.58;;;;;;;10.38;87.01;91150.22;5014153;28;20036;-87
2021/08/11 02:56:08;;;;;;;5.50;3.47;;;;;;;10.40;86.71;91156.66;5029559;28;20030;-88
2021/08/11 02:58:45;;;;;;;5.43;3.28;;;;;;;10.41;86.42;91160.00;5029751;28;20068;-87
2021/08/11 03:01:16;;;;;;;7.10;3.83;;;;;;;10.57;88.26;91157.56;5014264;28;20025;-87
2021/08/11 03:03:56;;;;;;;9.02;3.78;;;;;;;10.53;87.60;91152.25;5013992;28;20399;-87
2021/08/11 03:06:34;;;;;;;8.15;4.00;;;;;;;10.40;87.37;91151.44;5014711;28;20025;-87
2021/08/11 03:09:10;;;;;;;6.07;3.75;;;;;;;10.45;88.07;91160.88;5014396;28;20022;-87
2021/08/11 03:11:51;;;;;;;9.93;4.25;;;;;;;10.43;88.32;91153.41;5014165;28;20026;-87
2021/08/11 03:14:33;;;;;;;6.32;3.58;;;;;;;10.48;88.30;91155.78;5030124;28;20029;-87
2021/08/11 03:17:16;;;;;;;5.72;3.65;;;;;;;10.45;87.68;91155.66;4998858;28;20025;-87
2021/08/11 03:19:54;;;;;;;5.10;3.30;;;;;;;10.45;87.25;91164.25;5014621;28;20025;-88
2021/08/11 03:22:33;;;;;;;5.72;3.10;;;;;;;10.42;87.43;91161.53;4998381;28;20029;-86
2021/08/11 03:25:10;;;;;;;7.43;3.72;;;;;;;10.49;87.74;91166.97;5014324;28;20025;-85
2021/08/11 03:27:44;;;;;;;6.25;3.78;;;;;;;10.44;87.98;91173.16;4978882;28;20033;-88
2021/08/11 03:30:25;;;;;;;8.52;4.20;;;;;;;10.44;88.33;91175.75;4994040;28;20498;-88
2021/08/11 03:32:59;;;;;;;6.15;3.42;;;;;;;10.51;89.29;91170.03;5010272;28;20104;-88
2021/08/11 03:35:39;;;;;;;4.72;3.60;;;;;;;10.60;89.25;91177.75;4994478;28;20053;-88
2021/08/11 03:38:22;;;;;;;5.22;3.60;;;;;;;10.62;89.22;91170.38;5010202;28;20108;-88
2021/08/11 03:41:01;;;;;;;6.20;3.60;;;;;;;10.61;89.08;91169.63;4994816;28;20498;-88
2021/08/11 03:43:41;;;;;;;4.90;3.80;;;;;;;10.61;89.53;91174.09;4994738;28;20025;-88
2021/08/11 03:46:17;;;;;;;6.18;3.85;;;;;;;10.62;89.77;91170.38;4994736;28;20413;-88
2021/08/11 03:49:04;;;;;;;6.20;3.42;;;;;;;10.68;89.27;91166.50;4993834;28;20025;-88
2021/08/11 03:51:41;;;;;;;5.57;3.30;;;;;;;10.73;89.79;91174.13;5009987;28;20018;-88
2021/08/11 03:54:18;;;;;;;8.50;3.65;;;;;;;10.74;89.19;91173.03;4994722;28;20487;-88
2021/08/11 03:56:57;;;;;;;4.93;3.15;;;;;;;10.80;88.92;91174.34;4994265;28;20022;-88
2021/08/11 03:59:41;;;;;;;5.43;3.20;;;;;;;10.78;88.80;91179.13;4993086;28;20125;-88
2021/08/11 04:02:21;;;;;;;8.23;3.50;;;;;;;10.75;88.70;91174.56;5011081;28;20494;-88
2021/08/11 04:05:01;;;;;;;5.13;3.20;;;;;;;10.75;88.30;91170.09;5010026;28;20042;-88
2021/08/11 04:07:36;;;;;;;6.20;3.30;;;;;;;10.85;86.47;91179.38;4997495;28;20099;-88
2021/08/11 04:10:12;;;;;;;5.50;3.63;;;;;;;10.74;85.97;91179.03;4997215;28;20026;-88
2021/08/11 04:12:51;;;;;;;7.43;3.72;;;;;;;10.52;86.80;91164.50;4997544;28;20030;-87
2021/08/11 04:15:28;;;;;;;5.07;3.63;;;;;;;10.47;87.47;91174.38;4982287;28;20049;-88
2021/08/11 04:18:05;;;;;;;5.15;3.50;;;;;;;10.60;86.99;91177.75;5100389;22;20049;-87
2021/08/11 04:20:41;;;;;;;7.43;3.45;;;;;;;10.52;86.95;91172.31;5023598;28;20051;-87
2021/08/11 04:23:14;;;;;;;5.57;3.60;;;;;;;10.50;87.39;91174.50;5056746;28;20048;-86
2021/08/11 04:25:51;;;;;;;7.63;3.90;;;;;;;10.53;88.20;91173.84;5056277;28;20405;-86
2021/08/11 04:28:29;;;;;;;6.93;4.00;;;;;;;10.52;88.35;91177.50;5036865;28;20014;-88
2021/08/11 04:31:07;;;;;;;5.00;3.50;;;;;;;10.52;88.30;91176.75;5036818;28;20033;-88
2021/08/11 04:33:48;;;;;;;6.28;3.72;;;;;;;10.57;88.56;91175.81;5050739;28;20049;-87
2021/08/11 04:36:29;;;;;;;6.22;4.18;;;;;;;10.65;88.70;91182.78;5058053;28;20022;-85
2021/08/11 04:39:08;;;;;;;7.00;3.80;;;;;;;10.70;88.74;91178.13;5017200;28;20041;-86
2021/08/11 04:41:45;;;;;;;6.85;3.80;;;;;;;10.79;88.88;91179.91;5017524;28;20033;-85
2021/08/11 04:44:22;;;;;;;5.30;3.75;;;;;;;10.77;89.18;91198.44;5017108;28;20028;-85
2021/08/11 04:46:58;;;;;;;5.82;3.78;;;;;;;10.81;88.78;91190.75;5033723;28;20029;-85
2021/08/11 04:49:27;;;;;;;10.25;5.07;;;;;;;10.74;87.65;91188.66;5033555;28;20474;-86
2021/08/11 04:52:07;;;;;;;7.35;3.30;;;;;;;10.64;86.22;91189.09;5017553;28;20489;-84
2021/08/11 04:54:40;;;;;;;5.93;3.22;;;;;;;10.80;85.53;91192.59;5002958;28;20116;-85
2021/08/11 04:57:18;;;;;;;6.82;4.05;;;;;;;10.66;86.47;91181.69;5001917;28;20580;-85
2021/08/11 05:00:03;;;;;;;6.65;3.58;;;;;;;10.80;88.08;91197.81;5038598;28;20026;-85
2021/08/11 05:02:42;;;;;;;6.68;3.53;;;;;;;10.89;86.47;91188.06;5019384;28;20446;-85
2021/08/11 05:05:20;;;;;;;5.53;3.40;;;;;;;10.81;86.57;91194.09;5018299;28;20029;-86
2021/08/11 05:07:59;;;;;;;7.30;3.60;;;;;;;10.79;87.58;91191.09;5018374;28;20452;-84
2021/08/11 05:10:33;;;;;;;4.47;3.40;;;;;;;10.88;87.37;91194.34;5001929;28;20442;-86
2021/08/11 05:13:13;;;;;;;5.78;3.55;;;;;;;11.09;85.59;91194.28;5002518;28;20029;-86
2021/08/11 05:15:52;;;;;;;4.82;3.20;;;;;;;10.94;86.57;91187.84;5018995;28;20029;-86
2021/08/11 05:18:31;;;;;;;6.50;4.10;;;;;;;11.14;89.30;91195.94;5017998;28;20025;-85
2021/08/11 05:21:08;;;;;;;7.63;4.40;;;;;;;11.32;89.49;91194.66;5033531;28;20040;-85
2021/08/11 05:23:40;;;;;;;8.07;4.18;;;;;;;11.31;89.78;91200.97;5033169;28;20029;-85
2021/08/11 05:26:14;;;;;;;7.25;4.30;;;;;;;11.41;89.85;91200.53;5026864;28;20026;-85
2021/08/11 05:28:47;;;;;;;;;;;;;;;11.52;89.56;91197.47;5015444;28;20081;-86
2021/08/11 05:31:20;;;;;;;8.32;4.53;;;;;;;11.54;89.78;91197.94;4997726;28;20012;-87
2021/08/11 05:34:02;;;;;;;7.07;4.38;;;;;;;11.67;90.05;91202.06;5016331;28;20099;-85
2021/08/11 05:36:42;;;;;;;8.30;5.32;;;;;;;11.86;89.04;91204.91;5014586;28;20052;-86
2021/08/11 05:39:21;;;;;;;8.23;5.40;;;;;;;11.92;89.03;91195.75;5030346;28;20489;-83
2021/08/11 05:42:00;;;;;;;7.72;4.00;;;;;;;11.99;88.58;91191.84;4998383;28;20034;-85
2021/08/11 05:44:33;;;;;;;7.35;4.55;;;;;;;12.01;88.00;91194.88;5014968;28;20483;-86
2021/08/11 05:47:11;;;;;;;7.25;4.45;;;;;;;12.05;88.26;91198.34;4999162;28;20034;-87
2021/08/11 05:49:47;;;;;;;5.95;4.00;;;;;;;12.18;88.38;91197.22;5015008;28;20026;-85
2021/08/11 05:52:27;;;;;;;8.18;4.07;;;;;;;12.19;88.52;91204.75;5015215;28;20501;-86
2021/08/11 05:55:07;;;;;;;5.97;4.40;;;;;;;12.31;88.29;91209.19;5015494;28;20087;-86
2021/08/11 05:57:53;;;;;;;7.03;4.25;;;;;;;12.38;88.11;91212.00;5014651;28;20029;-86
2021/08/11 06:00:33;;;;;;;6.15;4.13;;;;;;;12.60;87.44;91215.19;5014719;28;20441;-86
2021/08/11 06:03:10;;;;;;;6.38;4.05;;;;;;;12.69;87.12;91213.22;4998871;28;20026;-86
2021/08/11 06:05:48;;;;;;;6.00;4.28;;;;;;;12.72;87.45;91215.16;5016933;28;20022;-86
2021/08/11 06:08:27;;;;;;;6.65;4.32;;;;;;;12.80;87.47;91206.41;5015340;28;20018;-86
2021/08/11 06:11:08;;;;;;;7.93;4.50;;;;;;;12.85;86.75;91211.38;5015223;28;20037;-86
2021/08/11 06:13:48;;;;;;;5.25;3.72;;;;;;;12.90;86.78;91216.38;5007662;28;20013;-87
2021/08/11 06:16:31;;;;;;;8.60;4.00;;;;;;;12.93;86.86;91212.31;5028915;28;20036;-85
2021/08/11 06:19:13;;;;;;;5.68;4.28;;;;;;;13.03;86.73;91211.09;5014009;28;20205;-85
2021/08/11 06:21:54;;;;;;;6.40;4.38;;;;;;;13.07;86.57;91204.09;5013274;28;20501;-86
2021/08/11 06:24:35;;;;;;;7.60;5.10;;;;;;;13.22;86.51;91203.38;5013234;28;20034;-85
2021/08/11 06:27:11;;;;;;;9.90;5.40;;;;;;;13.35;87.25;91217.16;5031759;28;20029;-86
2021/08/11 06:29:47;;;;;;;10.07;5.90;;;;;;;13.49;87.30;91211.50;5016652;28;20029;-86
2021/08/11 06:32:29;;;;;;;16.17;8.00;;;;;;;13.76;85.74;91217.75;5002112;28;20029;-86
2021/08/11 06:35:04;;;;;;;11.88;5.97;;;;;;;13.91;85.35;91214.34;5018715;28;20025;-87
2021/08/11 06:37:48;;;;;;;8.90;5.05;;;;;;;14.04;86.08;91209.78;5018235;28;20039;-87
2021/08/11 06:40:28;;;;;;;8.07;4.45;;;;;;;14.06;85.66;91218.03;5003579;28;20029;-87
2021/08/11 06:43:07;;;;;;;6.35;4.57;;;;;;;14.24;85.57;91213.16;5019697;28;20018;-87
2021/08/11 06:45:47;;;;;;;8.80;4.20;;;;;;;14.41;85.50;91218.03;5036552;28;20053;-85
2021/08/11 06:48:23;;;;;;;8.32;4.53;;;;;;;14.41;85.01;91212.78;5049325;28;20076;-85
2021/08/11 06:51:05;;;;;;;7.32;3.90;;;;;;;14.59;84.23;91213.16;5019413;28;20021;-85
2021/08/11 06:53:39;;;;;;;6.60;4.10;;;;;;;14.72;83.70;91217.19;5014269;28;20156;-85
2021/08/11 06:56:18;;;;;;;5.70;3.90;;;;;;;14.96;82.33;91215.38;4998872;28;20026;-85
2021/08/11 06:59:01;;;;;;;10.27;4.30;;;;;;;15.16;84.42;91209.00;5014886;28;20022;-85
2021/08/11 07:01:41;;;;;;;8.13;3.78;;;;;;;15.27;83.03;91214.44;5030940;28;20037;-86
2021/08/11 07:04:20;;;;;;;6.80;3.67;;;;;;;15.37;80.37;91199.97;5015788;28;20021;-85
2021/08/11 07:06:56;;;;;;;7.88;3.70;;;;;;;15.55;79.84;91214.16;5015622;28;20486;-85
2021/08/11 07:09:34;;;;;;;7.93;4.00;;;;;;;15.66;80.37;91209.13;5014617;28;20022;-85
2021/08/11 07:12:11;;;;;;;7.72;3.90;;;;;;;15.86;81.06;91212.41;5031206;28;20395;-85
2021/08/11 07:14:52;;;;;;;4.70;3.72;;;;;;;16.04;77.29;91212.66;5031403;28;20021;-85
2021/08/11 07:17:33;;;;;;;5.10;3.70;;;;;;;16.19;76.76;91215.16;5031113;28;20501;-86
2021/08/11 07:20:16;;;;;;;6.38;4.00;;;;;;;16.48;75.82;91211.03;5031084;28;20029;-85
2021/08/11 07:22:51;;;;;;;6.50;3.65;;;;;;;16.69;74.76;91218.44;5015736;28;20403;-85
2021/08/11 07:25:28;;;;;;;6.88;4.05;;;;;;;16.99;76.76;91219.56;5014811;28;20032;-85
2021/08/11 07:28:04;;;;;;;7.05;3.80;;;;;;;16.98;74.94;91205.63;5015093;28;20390;-86
2021/08/11 07:30:41;;;;;;;6.78;4.10;;;;;;;17.08;73.62;91217.41;5000338;28;20026;-85
2021/08/11 07:33:23;;;;;;;8.27;4.38;;;;;;;17.11;73.26;91211.41;5031911;28;20033;-85
2021/08/11 07:36:01;;;;;;;8.90;4.80;;;;;;;17.22;74.64;91198.38;5031851;28;20030;-85
2021/08/11 07:38:38;;;;;;;8.93;5.07;;;;;;;17.43;69.97;91203.84;5031477;28;20100;-85
2021/08/11 07:41:32;;;;;;;8.55;4.88;;;;;;;17.62;68.42;91206.25;5033775;28;20114;-86
2021/08/11 07:44:08;;;;;;;9.27;4.93;;;;;;;17.72;67.05;91204.09;5036634;28;20025;-85
2021/08/11 07:46:51;;;;;;;9.07;4.90;;;;;;;17.82;67.47;91201.56;5020090;28;20029;-86
2021/08/11 07:49:32;;;;;;;8.73;4.90;;;;;;;17.96;66.92;91195.63;5020259;28;20033;-87
2021/08/11 07:52:08;;;;;;;8.65;5.10;;;;;;;18.06;64.64;91204.75;5035870;28;20025;-86
2021/08/11 07:54:43;;;;;;;10.30;5.68;;;;;;;18.16;63.52;91201.41;5035839;28;20021;-85
2021/08/11 07:57:23;;;;;;;10.52;5.40;;;;;;;18.30;63.61;91206.78;5020000;28;20485;-85
2021/08/11 08:00:02;;;;;;;8.65;5.43;;;;;;;18.37;61.46;91206.84;5035522;28;20489;-87
2021/08/11 08:02:36;;;;;;;10.38;5.68;;;;;;;18.47;62.17;91210.63;5020154;28;20029;-86
2021/08/11 08:05:11;;;;;;;6.72;5.10;;;;;;;18.52;61.46;91201.63;5004111;28;20052;-85
2021/08/11 08:07:49;;;;;;;8.63;5.63;;;;;;;18.58;59.79;91200.88;5035794;28;20033;-85
2021/08/11 08:10:22;;;;;;;8.65;5.25;;;;;;;18.56;62.14;91197.13;5020351;28;20029;-85
2021/08/11 08:12:59;;;;;;;9.38;5.00;;;;;;;18.70;63.91;91201.72;5019611;28;20030;-86
2021/08/11 08:15:37;;;;;;;6.78;4.90;;;;;;;18.73;63.86;91195.69;5020973;28;20108;-87
2021/08/11 08:18:20;;;;;;;11.30;5.75;;;;;;;18.98;60.58;91206.38;5037391;28;20021;-87
2021/08/11 08:21:01;;;;;;;10.52;5.55;;;;;;;19.04;59.26;91199.59;5021414;28;20406;-86
2021/08/11 08:23:39;;;;;;;9.43;5.55;;;;;;;19.09;61.41;91207.16;5036356;28;20309;-87
2021/08/11 08:26:14;;;;;;;8.90;5.55;;;;;;;19.19;60.96;91216.25;5017571;28;20033;-85
2021/08/11 08:28:52;;;;;;;8.02;5.32;;;;;;;19.35;60.07;91214.78;5017093;28;20034;-86
2021/08/11 08:31:31;;;;;;;8.68;6.18;;;;;;;19.31;58.89;91218.53;5017179;28;20018;-86
2021/08/11 08:34:11;;;;;;;8.80;6.28;;;;;;;19.25;57.71;91214.75;5033900;28;20112;-87
2021/08/11 08:36:48;;;;;;;7.68;5.60;;;;;;;19.36;59.86;91215.53;5017038;28;20032;-87
2021/08/11 08:39:21;;;;;;;10.48;6.53;;;;;;;19.37;60.75;91216.31;5016967;28;20018;-88
2021/08/11 08:41:59;;;;;;;8.00;5.90;;;;;;;19.45;59.20;91218.56;5017949;28;20494;-87
2021/08/11 08:44:26;;;;;;;8.95;6.00;;;;;;;19.52;60.00;91213.31;5018006;28;20045;-87
2021/08/11 08:47:04;;;;;;;11.27;6.07;;;;;;;19.70;60.76;91209.97;5018044;28;20026;-87
2021/08/11 08:49:40;;;;;;;9.90;6.82;;;;;;;19.90;58.30;91219.03;5018698;28;20022;-88
2021/08/11 08:52:19;;;;;;;9.82;6.63;;;;;;;19.88;56.00;91218.66;4986461;28;20024;-86
2021/08/11 08:54:58;;;;;;;10.23;6.40;;;;;;;19.93;57.64;91213.00;5003679;28;20030;-87
2021/08/11 08:57:35;;;;;;;11.27;6.30;;;;;;;20.06;58.83;91219.41;5003533;28;20100;-87
2021/08/11 09:00:23;;;;;;;11.05;7.40;;;;;;;20.09;58.19;91217.16;5003801;28;20037;-86
2021/08/11 09:03:04;;;;;;;13.23;7.38;;;;;;;20.15;57.94;91220.94;5033309;28;20022;-85
2021/08/11 09:05:42;;;;;;;9.60;6.85;;;;;;;20.17;56.27;91219.41;5035464;28;20498;-86
2021/08/11 09:08:19;;;;;;;12.27;8.07;;;;;;;20.36;54.39;91226.19;5015800;28;20040;-85
2021/08/11 09:10:59;;;;;;;11.23;7.53;;;;;;;20.40;53.78;91221.66;4983944;28;20028;-86
2021/08/11 09:13:32;;;;;;;13.98;8.93;;;;;;;20.42;54.80;91227.31;4983739;28;20052;-86
2021/08/11 09:16:18;;;;;;;15.35;9.45;;;;;;;20.48;54.57;91230.31;5015308;28;20080;-86
2021/08/11 09:19:01;;;;;;;16.35;9.98;;;;;;;20.78;51.11;91224.63;5014787;28;20042;-86
2021/08/11 09:21:33;;;;;;;13.95;10.23;;;;;;;20.98;51.73;91233.63;4983401;28;20095;-86
2021/08/11 09:24:12;;;;;;;14.93;10.55;;;;;;;20.97;50.89;91231.38;4982912;28;20041;-86
2021/08/11 09:26:50;;;;;;;12.32;9.68;;;;;;;20.97;48.28;91228.72;5020302;28;20053;-85
2021/08/11 09:29:27;;;;;;;13.70;10.05;;;;;;;21.00;48.86;91236.66;5031046;28;20095;-85
2021/08/11 09:32:12;;;;;;;15.27;11.45;;;;;;;20.93;48.60;91234.03;5048820;28;20029;-86
2021/08/11 09:34:53;;;;;;;16.50;10.98;;;;;;;21.05;48.42;91232.09;5048142;28;20049;-84
2021/08/11 09:37:50;;;;;;;16.15;11.38;;;;;;;21.24;48.98;91236.94;5032130;28;20052;-85
2021/08/11 09:40:28;;;;;;;15.73;10.80;;;;;;;21.28;47.87;91229.72;5015681;28;20036;-85
2021/08/11 09:43:12;;;;;;;14.75;10.98;;;;;;;21.36;44.97;91231.22;5033897;28;20066;-86
2021/08/11 09:45:52;;;;;;;15.57;10.48;;;;;;;21.36;45.71;91233.88;5016281;28;20485;-85
2021/08/11 09:48:31;;;;;;;15.85;10.63;;;;;;;21.24;46.40;91218.41;5032073;28;20033;-85
2021/08/11 09:51:10;;;;;;;14.23;10.55;;;;;;;21.35;45.53;91226.31;5015561;28;20029;-85
2021/08/11 09:53:50;;;;;;;13.93;10.02;;;;;;;21.35;45.32;91219.13;5032256;28;20025;-85
2021/08/11 09:56:35;;;;;;;14.43;10.70;;;;;;;21.44;45.84;91232.69;5016654;28;20029;-85
2021/08/11 09:59:12;;;;;;;17.50;11.23;;;;;;;21.61;46.24;91231.09;5017096;28;20042;-85
2021/08/11 10:02:26;;;;;;;14.30;10.63;;;;;;;21.69;45.75;91237.09;5002979;28;20080;-85
2021/08/11 10:05:05;;;;;;;15.63;10.40;;;;;;;21.80;46.08;91227.19;5032386;28;20031;-87
2021/08/11 10:07:50;;;;;;;13.77;10.07;;;;;;;21.96;45.50;91224.78;5017966;28;20505;-86
2021/08/11 10:10:33;;;;;;;16.60;10.48;;;;;;;21.98;46.15;91236.91;5002095;28;20052;-85
2021/08/11 10:13:14;;;;;;;13.98;10.02;;;;;;;22.05;45.61;91226.22;5019210;28;20026;-85
2021/08/11 10:15:53;;;;;;;11.48;8.18;;;;;;;22.10;44.50;91233.78;5018565;28;20021;-85
2021/08/11 10:18:34;;;;;;;13.05;8.50;;;;;;;22.09;45.47;91233.03;5077128;23;20053;-87
2021/08/11 10:21:06;;;;;;;14.48;8.60;;;;;;;22.28;45.20;91237.09;5031562;28;20033;-86
2021/08/11 10:23:41;;;;;;;12.25;8.45;;;;;;;22.16;44.36;91237.56;5031839;28;20079;-86
2021/08/11 10:26:15;;;;;;;11.65;8.70;;;;;;;22.23;43.82;91239.41;5015473;28;20025;-87
2021/08/11 10:28:54;;;;;;;11.43;7.90;;;;;;;22.19;45.23;91232.22;5032217;28;20080;-87
2021/08/11 10:31:29;;;;;;;13.35;8.25;;;;;;;22.35;45.43;91229.06;5013818;28;20481;-87
2021/08/11 10:34:05;;;;;;;13.82;7.85;;;;;;;22.26;45.23;91231.44;5014578;28;20106;-86
2021/08/11 10:36:39;;;;;;;11.93;7.38;;;;;;;22.31;45.41;91238.19;5031669;28;20017;-87
2021/08/11 10:39:13;;;;;;;;;;;;;;;22.24;44.15;91228.41;4998870;28;20021;-87
2021/08/11 10:41:45;;;;;;;13.32;8.32;;;;;;;22.22;44.01;91228.03;5029954;28;19957;-86
2021/08/11 10:44:27;;;;;;;11.90;6.85;;;;;;;22.19;43.55;91239.41;5013983;28;20037;-87
2021/08/11 10:47:03;;;;;;;13.18;8.10;;;;;;;22.28;45.70;91239.72;5031377;28;20038;-87
2021/08/11 10:49:52;;;;;;;10.30;7.32;;;;;;;22.36;45.00;91235.88;5029928;28;20029;-87
2021/08/11 10:52:17;;;;;;;9.10;6.47;;;;;;;22.34;45.03;91242.72;4995957;28;20112;-86
2021/08/11 10:55:05;;;;;;;10.13;6.90;;;;;;;22.43;45.41;91235.06;5010701;28;20110;-86
2021/08/11 10:57:45;;;;;;;10.27;6.55;;;;;;;22.69;43.79;91231.03;5010218;28;20206;-86
2021/08/11 11:00:45;;;;;;;12.20;6.85;;;;;;;22.66;45.01;91232.56;5011119;28;20026;-87
2021/08/11 11:03:37;;;;;;;9.57;6.65;;;;;;;22.69;45.98;91240.91;5026617;28;20026;-86
2021/08/11 11:06:10;;;;;;;11.35;7.07;;;;;;;22.48;43.63;91234.66;5010822;28;20100;-86
2021/08/11 11:08:45;;;;;;;11.65;7.13;;;;;;;22.63;45.21;91221.97;4996293;28;20018;-85
2021/08/11 11:11:37;;;;;;;10.40;7.38;;;;;;;22.60;44.94;91228.06;4995474;28;20058;-87
2021/08/11 11:14:32;;;;;;;10.05;6.85;;;;;;;22.87;44.99;91226.28;4994504;28;20021;-87
2021/08/11 11:17:07;;;;;;;10.10;6.63;;;;;;;22.76;45.35;91217.66;5014366;28;20053;-87
2021/08/11 11:20:10;;;;;;;8.68;6.53;;;;;;;22.66;43.68;91231.81;4998371;28;20399;-87
2021/08/11 11:22:54;;;;;;;9.48;6.30;;;;;;;22.82;44.16;91234.66;5015599;28;20037;-87
2021/08/11 11:26:04;;;;;;;12.88;5.93;;;;;;;23.05;45.03;91230.69;5017075;28;20053;-86
2021/08/11 11:29:10;;;;;;;10.85;6.28;;;;;;;22.99;44.29;91226.94;5035111;28;20401;-87
2021/08/11 11:31:55;;;;;;;9.73;6.05;;;;;;;23.13;42.89;91227.53;5033085;28;20477;-87
2021/08/11 11:34:42;;;;;;;9.48;6.22;;;;;;;23.13;44.02;91221.47;5017490;28;20057;-86
2021/08/11 11:37:25;;;;;;;10.20;6.93;;;;;;;23.25;45.53;91222.81;5017434;28;20477;-86
2021/08/11 11:40:03;;;;;;;10.98;6.10;;;;;;;23.23;44.32;91228.56;5033209;28;20021;-87
2021/08/11 11:42:43;;;;;;;9.02;6.35;;;;;;;23.18;44.00;91223.69;5034798;28;20033;-87
2021/08/11 11:45:41;;;;;;;12.15;6.07;;;;;;;23.48;45.01;91230.16;5018442;28;20120;-86
2021/08/11 11:48:18;;;;;;;9.02;6.80;;;;;;;23.45;46.29;91209.66;5035303;28;20026;-87
2021/08/11 11:51:13;;;;;;;9.48;6.55;;;;;;;23.78;45.05;91227.50;5034357;28;20079;-87
2021/08/11 11:53:50;;;;;;;10.40;6.22;;;;;;;23.60;43.32;91221.63;5018103;28;20033;-86
2021/08/11 11:56:27;;;;;;;8.95;6.60;;;;;;;23.69;44.93;91224.56;5017205;28;20079;-86
2021/08/11 11:59:07;;;;;;;8.70;6.00;;;;;;;23.91;42.97;91218.94;5017295;28;20029;-87
2021/08/11 12:01:49;;;;;;;9.57;6.78;;;;;;;23.81;43.12;91221.34;5017031;28;20442;-87
2021/08/11 12:04:32;;;;;;;11.15;6.45;;;;;;;23.97;44.54;91225.31;5033077;28;20100;-87
2021/08/11 12:07:08;;;;;;;9.02;6.63;;;;;;;24.06;43.19;91212.22;5016894;28;20025;-87
2021/08/11 12:09:52;;;;;;;13.07;7.07;;;;;;;24.25;43.81;91222.22;5034109;28;20036;-87
2021/08/11 12:12:28;;;;;;;9.15;7.32;;;;;;;24.45;42.56;91213.53;5017300;28;20029;-87
2021/08/11 12:15:21;;;;;;;14.48;9.52;;;;;;;24.93;43.17;91221.06;5033234;28;20025;-87
2021/08/11 12:18:00;;;;;;;11.15;7.15;;;;;;;24.89;40.77;91219.63;5032693;28;20394;-87
2021/08/11 12:20:38;;;;;;;13.10;7.75;;;;;;;24.77;42.96;91224.41;5017141;28;20044;-87
2021/08/11 12:23:26;;;;;;;10.77;7.38;;;;;;;24.64;41.08;91222.75;5034267;28;20499;-87
2021/08/11 12:26:05;;;;;;;11.18;8.98;;;;;;;24.60;42.99;91225.47;5033795;28;20048;-87
2021/08/11 12:28:46;;;;;;;10.82;8.05;;;;;;;24.76;40.70;91225.56;5016537;28;20104;-87
2021/08/11 12:31:35;;;;;;;9.80;7.93;;;;;;;24.84;41.20;91223.53;5017255;28;20033;-86